createdAt,value
2018-03-23T00:00:39.927Z,50.13
2018-03-23T00:03:07.432Z,52.40
2018-03-23T00:05:34.927Z,54.53
2018-03-23T00:08:02.443Z,58.63
2018-03-23T00:10:29.919Z,53.33
2018-03-23T00:12:57.421Z,55.00
2018-03-23T00:15:25.664Z,58.33
2018-03-23T00:17:53.176Z,52.20
2018-03-23T00:20:21.429Z,54.80
2018-03-23T00:22:48.933Z,53.03
2018-03-23T00:25:17.184Z,58.30
2018-03-23T00:27:44.692Z,57.30
2018-03-23T00:30:12.948Z,52.47
2018-03-23T00:32:40.438Z,55.37
2018-03-23T00:35:07.915Z,57.10
2018-03-23T00:37:35.411Z,56.37
2018-03-23T00:40:02.892Z,60.93
2018-03-23T00:42:30.411Z,58.70
2018-03-23T00:44:57.887Z,61.30
2018-03-23T00:47:25.367Z,56.70
2018-03-23T00:49:53.639Z,56.77
2018-03-23T00:52:21.125Z,62.77
2018-03-23T00:54:49.392Z,60.53
2018-03-23T00:57:16.873Z,59.00
2018-03-23T00:59:44.376Z,71.53
2018-03-23T01:02:11.854Z,64.10
2018-03-23T01:04:39.360Z,59.73
2018-03-23T01:07:06.852Z,67.20
2018-03-23T01:09:34.368Z,66.10
2018-03-23T01:12:01.861Z,66.00
2018-03-23T01:14:29.375Z,62.53
2018-03-23T01:16:56.851Z,61.03
2018-03-23T01:19:25.127Z,60.17
2018-03-23T01:21:52.620Z,63.90
2018-03-23T01:24:20.123Z,61.23
2018-03-23T01:26:47.608Z,64.93
2018-03-23T01:29:15.083Z,63.73
2018-03-23T01:31:42.579Z,74.40
2018-03-23T01:34:10.059Z,66.40
2018-03-23T01:36:38.324Z,61.67
2018-03-23T01:39:05.811Z,67.17
2018-03-23T01:41:34.071Z,70.67
2018-03-23T01:44:01.551Z,66.57
2018-03-23T01:46:29.047Z,69.37
2018-03-23T01:48:57.310Z,64.70
2018-03-23T01:51:24.816Z,62.23
2018-03-23T01:53:53.065Z,70.83
2018-03-23T01:56:20.565Z,70.40
2018-03-23T01:58:48.919Z,67.10
2018-03-23T02:01:16.413Z,66.63
2018-03-23T02:03:43.900Z,68.40
2018-03-23T02:06:12.172Z,64.40
2018-03-23T02:08:40.438Z,62.70
2018-03-23T02:11:07.944Z,65.90
2018-03-23T02:13:36.204Z,64.20
2018-03-23T02:16:03.725Z,58.60
2018-03-23T02:18:31.216Z,65.37
2018-03-23T02:20:58.713Z,66.93
2018-03-23T02:23:26.242Z,61.80
2018-03-23T02:25:53.737Z,68.50
2018-03-23T02:28:21.240Z,71.67
2018-03-23T02:30:49.502Z,64.00
2018-03-23T02:33:17.022Z,64.50
2018-03-23T02:35:44.518Z,66.27
2018-03-23T02:38:12.034Z,62.93
2018-03-23T02:40:39.531Z,69.17
2018-03-23T02:43:07.042Z,71.40
2018-03-23T02:45:34.539Z,63.23
2018-03-23T02:48:02.054Z,72.93
2018-03-23T02:50:29.543Z,68.80
2018-03-23T02:52:57.058Z,69.03
2018-03-23T02:55:24.566Z,78.53
2018-03-23T02:57:52.085Z,71.40
2018-03-23T03:00:19.572Z,72.03
2018-03-23T03:02:47.839Z,70.53
2018-03-23T03:05:15.340Z,61.87
2018-03-23T03:07:43.615Z,75.33
2018-03-23T03:10:11.091Z,65.03
2018-03-23T03:12:38.601Z,72.30
2018-03-23T03:15:06.084Z,73.43
2018-03-23T03:17:33.569Z,68.47
2018-03-23T03:20:01.069Z,76.07
2018-03-23T03:22:28.551Z,67.27
2018-03-23T03:24:56.820Z,70.77
2018-03-23T03:27:24.313Z,60.93
2018-03-23T03:29:52.588Z,70.87
2018-03-23T03:32:20.841Z,65.77
2018-03-23T03:34:48.344Z,66.70
2018-03-23T03:37:15.823Z,68.53
2018-03-23T03:39:44.091Z,61.40
2018-03-23T03:42:11.567Z,62.33
2018-03-23T03:44:39.071Z,68.17
2018-03-23T03:47:06.547Z,61.50
2018-03-23T03:49:34.022Z,68.60
2018-03-23T03:52:01.524Z,66.07
2018-03-23T03:54:29.007Z,66.53
2018-03-23T03:56:56.508Z,62.27
2018-03-23T03:59:24.759Z,62.83
2018-03-23T04:01:52.259Z,62.00
2018-03-23T04:04:20.518Z,63.67
2018-03-23T04:06:48.016Z,61.20
2018-03-23T04:09:16.263Z,61.83
2018-03-23T04:11:43.768Z,65.27
2018-03-23T04:14:11.248Z,65.70
2018-03-23T04:16:39.518Z,61.10
2018-03-23T04:19:07.008Z,74.07
2018-03-23T04:21:35.267Z,78.77
2018-03-23T04:24:02.756Z,64.90
2018-03-23T04:26:30.251Z,65.47
2018-03-23T04:28:57.739Z,67.33
2018-03-23T04:31:25.239Z,73.40
2018-03-23T04:33:52.719Z,64.47
2018-03-23T04:36:20.215Z,67.47
2018-03-23T04:38:48.460Z,69.40
2018-03-23T04:41:15.958Z,66.87
2018-03-23T04:43:43.444Z,67.63
2018-03-23T04:46:11.731Z,88.70
2018-03-23T04:48:39.983Z,73.97
2018-03-23T04:51:07.466Z,79.30
2018-03-23T04:53:34.968Z,73.37
2018-03-23T04:56:03.211Z,68.70
2018-03-23T04:58:30.707Z,73.13
2018-03-23T05:00:58.197Z,64.57
2018-03-23T05:03:26.470Z,65.93
2018-03-23T05:05:54.911Z,61.60
2018-03-23T05:08:22.415Z,64.90
2018-03-23T05:10:49.891Z,67.97
2018-03-23T05:13:17.406Z,71.20
2018-03-23T05:15:44.895Z,74.63
2018-03-23T05:18:12.400Z,69.73
2018-03-23T05:20:39.896Z,72.20
2018-03-23T05:23:07.411Z,74.10
2018-03-23T05:25:34.896Z,65.77
2018-03-23T05:28:02.378Z,74.77
2018-03-23T05:30:29.879Z,63.97
2018-03-23T05:32:58.126Z,70.87
2018-03-23T05:35:25.635Z,70.77
2018-03-23T05:37:53.137Z,72.37
2018-03-23T05:40:20.647Z,69.20
2018-03-23T05:42:48.131Z,62.90
2018-03-23T05:45:16.400Z,78.00
2018-03-23T05:47:43.890Z,103.37
2018-03-23T05:50:11.394Z,71.47
2018-03-23T05:52:38.884Z,77.00
2018-03-23T05:55:06.378Z,68.60
2018-03-23T05:57:33.865Z,78.07
2018-03-23T06:00:02.143Z,70.53
2018-03-23T06:02:29.637Z,72.47
2018-03-23T06:04:57.903Z,72.50
2018-03-23T06:07:25.488Z,65.30
2018-03-23T06:09:53.003Z,74.70
2018-03-23T06:12:20.484Z,69.80
2018-03-23T06:14:47.989Z,75.93
2018-03-23T06:17:15.849Z,91.50
2018-03-23T06:19:43.361Z,74.90
2018-03-23T06:22:11.627Z,78.53
2018-03-23T06:24:39.107Z,76.37
2018-03-23T06:27:07.371Z,83.33
2018-03-23T06:29:34.852Z,72.50
2018-03-23T06:32:02.356Z,78.37
2018-03-23T06:34:29.850Z,80.80
2018-03-23T06:36:57.349Z,85.07
2018-03-23T06:39:24.842Z,84.10
2018-03-23T06:41:52.356Z,72.57
2018-03-23T06:44:19.861Z,90.53
2018-03-23T06:46:47.363Z,79.93
2018-03-23T06:49:15.616Z,73.00
2018-03-23T06:51:43.115Z,80.60
2018-03-23T06:54:11.370Z,77.80
2018-03-23T06:56:38.879Z,69.87
2018-03-23T06:59:07.137Z,80.00
2018-03-23T07:01:34.825Z,81.03
2018-03-23T07:04:02.712Z,72.87
2018-03-23T07:06:31.079Z,78.40
2018-03-23T07:08:59.560Z,75.83
2018-03-23T07:11:27.075Z,78.37
2018-03-23T07:13:54.705Z,78.87
2018-03-23T07:16:23.073Z,77.57
2018-03-23T07:18:51.313Z,83.93
2018-03-23T07:21:18.801Z,75.17
2018-03-23T07:23:47.068Z,84.20
2018-03-23T07:26:14.561Z,74.87
2018-03-23T07:28:42.837Z,79.40
2018-03-23T07:31:11.184Z,78.07
2018-03-23T07:33:39.459Z,91.60
2018-03-23T07:36:06.939Z,83.43
2018-03-23T07:38:34.457Z,72.77
2018-03-23T07:41:02.719Z,67.17
2018-03-23T07:43:30.224Z,74.77
2018-03-23T07:45:58.475Z,64.07
2018-03-23T07:48:25.991Z,65.80
2018-03-23T07:50:53.489Z,59.80
2018-03-23T07:53:20.991Z,66.37
2018-03-23T07:55:48.483Z,68.93
2018-03-23T07:58:16.763Z,62.40
2018-03-23T08:00:44.253Z,58.83
2018-03-23T08:03:12.514Z,70.53
2018-03-23T08:05:39.996Z,69.07
2018-03-23T08:08:07.503Z,63.70
2018-03-23T08:10:34.984Z,67.17
2018-03-23T08:13:02.492Z,74.17
2018-03-23T08:15:29.987Z,78.30
2018-03-23T08:17:58.240Z,62.37
2018-03-23T08:20:25.742Z,69.47
2018-03-23T08:22:53.996Z,63.03
2018-03-23T08:25:21.499Z,59.03
2018-03-23T08:27:49.752Z,59.10
2018-03-23T08:30:17.310Z,63.90
2018-03-23T08:32:45.528Z,67.63
2018-03-23T08:35:13.037Z,64.90
2018-03-23T08:37:40.531Z,66.00
2018-03-23T08:40:08.032Z,59.23
2018-03-23T08:42:35.515Z,60.60
2018-03-23T08:45:03.021Z,67.80
2018-03-23T08:47:30.503Z,62.70
2018-03-23T08:49:58.000Z,62.07
2018-03-23T08:52:33.300Z,56.30
2018-03-23T08:55:01.564Z,61.40
2018-03-23T08:57:29.049Z,61.73
2018-03-23T08:59:57.319Z,67.57
2018-03-23T09:02:24.799Z,69.80
2018-03-23T09:04:52.302Z,61.07
2018-03-23T09:07:19.784Z,59.80
2018-03-23T09:09:47.283Z,60.13
2018-03-23T09:12:14.764Z,56.67
2018-03-23T09:14:42.253Z,59.10
2018-03-23T09:17:10.525Z,55.47
2018-03-23T09:19:38.027Z,64.00
2018-03-23T09:22:06.305Z,65.30
2018-03-23T09:24:34.551Z,62.77
2018-03-23T09:27:02.056Z,59.73
2018-03-23T09:29:29.545Z,57.83
2018-03-23T09:31:57.461Z,57.17
2018-03-23T09:34:24.975Z,50.00
2018-03-23T09:36:52.488Z,51.93
2018-03-23T09:39:20.001Z,55.83
2018-03-23T09:41:47.504Z,49.57
2018-03-23T09:44:19.319Z,51.80
2018-03-23T09:46:46.864Z,51.17
2018-03-23T09:49:14.352Z,45.77
2018-03-23T09:51:41.860Z,44.63
2018-03-23T09:54:09.345Z,45.00
2018-03-23T09:56:36.857Z,51.70
2018-03-23T09:59:04.339Z,47.30
2018-03-23T10:01:31.839Z,43.40
2018-03-23T10:03:59.362Z,40.70
2018-03-23T10:06:27.610Z,43.50
2018-03-23T10:08:55.088Z,43.97
2018-03-23T10:11:23.367Z,57.30
2018-03-23T10:13:58.562Z,45.30
2018-03-23T10:16:26.079Z,64.40
2018-03-23T10:18:53.563Z,47.07
2018-03-23T10:21:21.090Z,46.37
2018-03-23T10:23:48.580Z,45.77
2018-03-23T10:26:16.072Z,49.73
2018-03-23T10:28:43.575Z,44.07
2018-03-23T10:31:11.064Z,44.67
2018-03-23T10:33:39.329Z,46.50
2018-03-23T10:36:06.811Z,48.03
2018-03-23T10:38:34.317Z,51.57
2018-03-23T10:41:01.801Z,46.50
2018-03-23T10:43:29.307Z,47.00
2018-03-23T10:45:56.794Z,49.87
2018-03-23T10:48:24.299Z,53.20
2018-03-23T10:50:52.989Z,49.90
2018-03-23T10:53:21.312Z,46.80
2018-03-23T10:55:48.792Z,54.53
2018-03-23T10:58:17.055Z,52.47
2018-03-23T11:00:50.168Z,48.97
2018-03-23T11:03:17.683Z,49.00
2018-03-23T11:05:45.179Z,44.40
2018-03-23T11:08:12.679Z,47.10
2018-03-23T11:10:45.187Z,48.83
2018-03-23T11:13:13.468Z,48.43
2018-03-23T11:15:48.213Z,45.23
2018-03-23T11:18:16.500Z,43.70
2018-03-23T11:20:44.751Z,43.60
2018-03-23T11:23:12.236Z,43.57
2018-03-23T11:25:39.741Z,37.63
2018-03-23T11:28:07.231Z,35.70
2018-03-23T11:30:34.731Z,36.63
2018-03-23T11:33:02.216Z,38.43
2018-03-23T11:35:29.781Z,35.50
2018-03-23T11:37:57.265Z,34.77
2018-03-23T11:40:34.717Z,36.80
2018-03-23T11:43:02.969Z,32.20
2018-03-23T11:45:31.234Z,35.40
2018-03-23T11:47:58.716Z,58.17
2018-03-23T11:50:26.336Z,34.13
2018-03-23T11:52:53.819Z,32.63
2018-03-23T11:55:21.353Z,36.83
2018-03-23T11:57:48.834Z,32.17
2018-03-23T12:00:16.346Z,31.27
2018-03-23T12:02:43.838Z,34.27
2018-03-23T12:05:14.550Z,63.47
2018-03-23T12:07:42.044Z,38.60
2018-03-23T12:10:09.547Z,35.53
2018-03-23T12:12:37.808Z,35.87
2018-03-23T12:15:05.316Z,36.07
2018-03-23T12:17:32.796Z,35.57
2018-03-23T12:20:00.279Z,36.27
2018-03-23T12:22:28.552Z,30.43
2018-03-23T12:24:56.031Z,35.87
2018-03-23T12:27:23.541Z,31.60
2018-03-23T12:29:51.021Z,32.00
2018-03-23T12:32:18.522Z,30.07
2018-03-23T12:34:46.062Z,34.77
2018-03-23T12:37:13.531Z,32.33
2018-03-23T12:39:41.019Z,36.20
2018-03-23T12:42:09.289Z,34.77
2018-03-23T12:44:36.771Z,34.43
2018-03-23T12:47:04.272Z,30.47
2018-03-23T12:49:31.777Z,31.93
2018-03-23T12:51:59.284Z,26.27
2018-03-23T12:54:27.533Z,32.30
2018-03-23T12:56:55.035Z,32.70
2018-03-23T12:59:23.286Z,31.70
2018-03-23T13:01:50.795Z,30.40
2018-03-23T13:04:22.087Z,34.03
2018-03-23T13:06:49.585Z,29.30
2018-03-23T13:09:17.070Z,30.23
2018-03-23T13:11:44.589Z,32.33
2018-03-23T13:14:12.067Z,30.10
2018-03-23T13:16:39.551Z,27.80
2018-03-23T13:19:07.052Z,28.70
2018-03-23T13:21:34.527Z,29.20
2018-03-23T13:24:02.025Z,27.07
2018-03-23T13:26:29.499Z,26.53
2018-03-23T13:28:57.787Z,28.90
2018-03-23T13:31:26.039Z,29.00
2018-03-23T13:33:53.553Z,28.03
2018-03-23T13:36:21.052Z,27.57
2018-03-23T13:38:48.555Z,29.63
2018-03-23T13:41:16.042Z,26.30
2018-03-23T13:43:43.542Z,31.27
2018-03-23T13:46:11.038Z,23.40
2018-03-23T13:48:38.545Z,27.60
2018-03-23T13:51:06.032Z,28.87
2018-03-23T13:53:34.296Z,31.17
2018-03-23T13:56:01.781Z,28.90
2018-03-23T13:58:35.650Z,27.60
2018-03-23T14:01:03.140Z,28.10
2018-03-23T14:03:30.642Z,22.00
2018-03-23T14:05:58.887Z,24.20
2018-03-23T14:08:26.424Z,26.90
2018-03-23T14:10:53.903Z,23.83
2018-03-23T14:13:21.403Z,25.93
2018-03-23T14:15:48.911Z,24.37
2018-03-23T14:18:17.163Z,22.30
2018-03-23T14:20:44.668Z,21.00
2018-03-23T14:23:12.925Z,20.40
2018-03-23T14:25:40.435Z,22.80
2018-03-23T14:28:08.679Z,22.67
2018-03-23T14:30:36.183Z,20.37
2018-03-23T14:33:03.664Z,21.87
2018-03-23T14:35:31.937Z,23.77
2018-03-23T14:37:59.419Z,22.83
2018-03-23T14:40:27.704Z,24.10
2018-03-23T14:42:55.950Z,22.50
2018-03-23T14:45:23.826Z,24.83
2018-03-23T14:47:51.315Z,20.93
2018-03-23T14:50:18.811Z,21.83
2018-03-23T14:52:47.064Z,23.50
2018-03-23T14:55:14.567Z,25.23
2018-03-23T14:57:42.820Z,25.83
2018-03-23T15:00:10.340Z,30.97
2018-03-23T15:02:38.592Z,31.20
2018-03-23T15:05:06.079Z,28.37
2018-03-23T15:07:34.356Z,27.00
2018-03-23T15:10:01.894Z,26.67
2018-03-23T15:12:30.124Z,23.83
2018-03-23T15:14:57.616Z,24.73
2018-03-23T15:17:25.883Z,24.27
2018-03-23T15:19:53.375Z,24.70
2018-03-23T15:22:20.902Z,28.50
2018-03-23T15:24:48.389Z,26.23
2018-03-23T15:27:16.677Z,28.83
2018-03-23T15:29:44.159Z,23.83
2018-03-23T15:32:12.433Z,23.90
2018-03-23T15:34:39.911Z,23.80
2018-03-23T15:37:07.429Z,25.23
2018-03-23T15:39:34.926Z,27.13
2018-03-23T15:42:02.440Z,29.93
2018-03-23T15:44:30.693Z,26.70
2018-03-23T15:46:58.204Z,27.40
2018-03-23T15:49:25.686Z,27.97
2018-03-23T15:51:53.195Z,28.63
2018-03-23T15:54:20.726Z,29.00
2018-03-23T15:56:48.191Z,26.40
2018-03-23T15:59:15.685Z,33.30
2018-03-23T16:01:43.207Z,29.07
2018-03-23T16:04:11.457Z,28.53
2018-03-23T16:06:38.957Z,31.87
2018-03-23T16:09:06.471Z,29.93
2018-03-23T16:11:33.953Z,29.33
2018-03-23T16:14:01.460Z,27.80
2018-03-23T16:16:28.957Z,26.67
2018-03-23T16:18:57.245Z,28.83
2018-03-23T16:21:24.747Z,28.03
2018-03-23T16:23:56.244Z,29.57
2018-03-23T16:26:23.774Z,27.97
2018-03-23T16:28:52.105Z,24.73
2018-03-23T16:31:19.714Z,26.37
2018-03-23T16:33:48.067Z,26.10
2018-03-23T16:36:15.562Z,32.20
2018-03-23T16:38:43.067Z,26.97
2018-03-23T16:41:10.675Z,30.73
2018-03-23T16:43:39.030Z,32.27
2018-03-23T16:46:06.647Z,30.50
2018-03-23T16:48:34.152Z,30.83
2018-03-23T16:51:02.425Z,33.27
2018-03-23T16:53:29.982Z,30.70
2018-03-23T16:55:57.486Z,34.60
2018-03-23T16:58:25.737Z,32.63
2018-03-23T17:00:53.247Z,31.67
2018-03-23T17:03:21.887Z,34.00
2018-03-23T17:05:49.400Z,34.13
2018-03-23T17:08:17.655Z,29.53
2018-03-23T17:10:45.165Z,31.83
2018-03-23T17:13:13.414Z,27.30
2018-03-23T17:15:40.914Z,36.73
2018-03-23T17:18:09.168Z,31.57
2018-03-23T17:20:36.671Z,31.93
2018-03-23T17:23:04.168Z,32.00
2018-03-23T17:25:31.679Z,29.77
2018-03-23T17:27:59.158Z,29.60
2018-03-23T17:30:26.674Z,29.90
2018-03-23T17:32:54.165Z,35.10
2018-03-23T17:35:21.669Z,30.03
2018-03-23T17:37:49.153Z,35.40
2018-03-23T17:40:16.650Z,39.33
2018-03-23T17:42:44.905Z,31.43
2018-03-23T17:45:12.407Z,28.77
2018-03-23T17:47:40.663Z,29.13
2018-03-23T17:50:08.175Z,30.00
2018-03-23T17:52:35.686Z,32.20
2018-03-23T17:55:07.674Z,33.70
2018-03-23T17:57:35.167Z,29.77
2018-03-23T18:00:03.431Z,27.83
2018-03-23T18:02:30.942Z,33.60
2018-03-23T18:04:59.207Z,34.43
2018-03-23T18:07:26.717Z,34.97
2018-03-23T18:09:54.250Z,36.47
2018-03-23T18:12:21.759Z,35.33
2018-03-23T18:14:49.246Z,33.03
2018-03-23T18:17:16.754Z,29.43
2018-03-23T18:19:44.247Z,32.43
2018-03-23T18:22:12.519Z,30.50
2018-03-23T18:24:40.017Z,32.40
2018-03-23T18:27:07.530Z,29.60
2018-03-23T18:29:35.024Z,32.07
2018-03-23T18:32:02.563Z,32.47
2018-03-23T18:34:30.048Z,31.53
2018-03-23T18:36:57.559Z,28.10
2018-03-23T18:39:25.824Z,28.53
2018-03-23T18:41:53.363Z,30.70
2018-03-23T18:44:20.864Z,28.43
2018-03-23T18:46:48.378Z,29.40
2018-03-23T18:49:15.862Z,34.90
2018-03-23T18:51:43.339Z,34.00
2018-03-23T18:54:12.783Z,26.93
2018-03-23T18:56:40.273Z,29.67
2018-03-23T18:59:08.543Z,33.33
2018-03-23T19:01:36.037Z,28.67
2018-03-23T19:04:03.547Z,31.07
2018-03-23T19:06:31.051Z,32.97
2018-03-23T19:08:58.574Z,31.33
2018-03-23T19:11:26.071Z,32.20
2018-03-23T19:13:53.613Z,36.20
2018-03-23T19:16:21.109Z,36.50
2018-03-23T19:18:48.631Z,34.37
2018-03-23T19:21:16.895Z,29.40
2018-03-23T19:23:44.403Z,32.50
2018-03-23T19:26:11.909Z,34.33
2018-03-23T19:28:39.413Z,32.57
2018-03-23T19:31:06.900Z,30.87
2018-03-23T19:33:35.164Z,31.27
2018-03-23T19:36:02.653Z,30.40
2018-03-23T19:38:30.175Z,33.20
2018-03-23T19:40:58.432Z,26.93
2018-03-23T19:43:25.973Z,27.03
2018-03-23T19:45:53.460Z,29.17
2018-03-23T19:48:21.734Z,31.47
2018-03-23T19:50:50.033Z,30.97
2018-03-23T19:53:18.287Z,31.50
2018-03-23T19:55:45.795Z,37.23
2018-03-23T19:58:14.042Z,29.30
2018-03-23T20:00:41.554Z,30.97
2018-03-23T20:03:09.804Z,37.10
2018-03-23T20:05:37.306Z,31.87
2018-03-23T20:08:04.794Z,29.10
2018-03-23T20:10:32.302Z,31.83
2018-03-23T20:12:59.813Z,32.53
2018-03-23T20:15:28.102Z,29.53
2018-03-23T20:18:01.319Z,38.47
2018-03-23T20:20:35.188Z,35.27
2018-03-23T20:23:02.679Z,31.50
2018-03-23T20:25:30.182Z,33.37
2018-03-23T20:28:04.141Z,31.37
2018-03-23T20:30:31.644Z,31.27
2018-03-23T20:33:00.164Z,33.67
2018-03-23T20:35:27.904Z,31.87
2018-03-23T20:37:55.444Z,29.70
2018-03-23T20:40:22.976Z,30.37
2018-03-23T20:42:50.458Z,35.30
2018-03-23T20:45:18.846Z,33.60
2018-03-23T20:47:46.465Z,31.40
2018-03-23T20:50:14.168Z,31.57
2018-03-23T20:52:41.685Z,31.20
2018-03-23T20:55:09.168Z,33.27
2018-03-23T20:57:36.667Z,30.17
2018-03-23T21:00:04.144Z,31.30
2018-03-23T21:02:31.649Z,29.27
2018-03-23T21:05:10.593Z,29.13
2018-03-23T21:07:38.858Z,30.43
2018-03-23T21:10:06.368Z,29.97
2018-03-23T21:12:33.875Z,34.67
2018-03-23T21:15:01.410Z,31.07
2018-03-23T21:17:28.944Z,35.77
2018-03-23T21:19:56.392Z,34.03
2018-03-23T21:22:23.913Z,36.60
2018-03-23T21:24:51.413Z,163.27
2018-03-23T21:27:18.923Z,98.27
2018-03-23T21:29:46.408Z,49.40
2018-03-23T21:32:14.675Z,37.03
2018-03-23T21:34:42.148Z,38.00
2018-03-23T21:37:09.670Z,39.47
2018-03-23T21:39:37.929Z,37.83
2018-03-23T21:42:06.189Z,40.67
2018-03-23T21:44:33.691Z,39.73
2018-03-23T21:47:01.183Z,38.70
2018-03-23T21:49:29.464Z,38.57
2018-03-23T21:51:56.955Z,39.23
2018-03-23T21:54:24.463Z,35.97
2018-03-23T21:56:51.939Z,39.10
2018-03-23T21:59:19.445Z,43.40
2018-03-23T22:01:46.941Z,39.43
2018-03-23T22:04:14.472Z,43.47
2018-03-23T22:06:41.960Z,34.13
2018-03-23T22:09:09.458Z,31.47
2018-03-23T22:11:36.941Z,33.50
2018-03-23T22:14:04.448Z,31.10
2018-03-23T22:16:32.709Z,30.07
2018-03-23T22:19:00.288Z,39.23
2018-03-23T22:21:28.552Z,48.53
2018-03-23T22:23:56.078Z,52.97
2018-03-23T22:26:23.581Z,38.27
2018-03-23T22:28:51.094Z,34.67
2018-03-23T22:31:19.351Z,34.70
2018-03-23T22:33:46.863Z,33.87
2018-03-23T22:36:15.172Z,32.97
2018-03-23T22:38:42.651Z,33.77
2018-03-23T22:41:10.151Z,32.17
2018-03-23T22:43:37.627Z,27.07
2018-03-23T22:46:05.132Z,31.23
2018-03-23T22:48:33.390Z,30.83
2018-03-23T22:51:00.900Z,30.67
2018-03-23T22:53:29.152Z,31.83
2018-03-23T22:55:56.660Z,30.90
2018-03-23T22:58:24.145Z,32.20
2018-03-23T23:00:51.656Z,30.33
2018-03-23T23:03:19.156Z,37.60
2018-03-23T23:05:47.426Z,31.27
2018-03-23T23:08:14.929Z,28.43
2018-03-23T23:10:42.449Z,34.90
2018-03-23T23:13:09.942Z,33.83
2018-03-23T23:15:37.456Z,30.77
2018-03-23T23:18:04.948Z,34.50
2018-03-23T23:20:32.463Z,49.37
2018-03-23T23:22:59.949Z,79.67
2018-03-23T23:25:28.230Z,40.07
2018-03-23T23:27:56.488Z,34.13
2018-03-23T23:30:23.994Z,35.60
2018-03-23T23:32:52.267Z,39.07
2018-03-23T23:35:20.515Z,34.90
2018-03-23T23:37:48.020Z,36.53
2018-03-23T23:40:15.497Z,37.13
2018-03-23T23:42:43.001Z,40.83
2018-03-23T23:45:10.484Z,40.23
2018-03-23T23:47:37.999Z,36.80
2018-03-23T23:50:05.493Z,35.07
2018-03-23T23:52:33.776Z,35.90
2018-03-23T23:55:02.027Z,35.23
2018-03-23T23:57:29.536Z,33.33
2018-03-23T23:59:57.788Z,34.53
